»·PEaware :: SKW393 KBUR-KLAS

SKW393 :: KBUR-KLAS

FLIGHT INFORMATION

Flight Status: Arrived
Operator:
SkyWest Airlines
More flights by this operator :: More flights under this callsign
Pilot: Jamie M. (16133)
Aircraft: CANADAIR CL-600 CRJ-700
(CRJ7)
More flights by this aircraft type
Origin: KBUR Bob Hope-Burbank
United States
Destination: KLAS McCarran Intl
United States
More flights between these airports :: More routes between these airports
Route: +SLAPP1 MISEN KEPEC6
File this flight plan on PilotEdge
Remarks: PBN / D1 DOF / 180110 REG / N353JM OPR / SKW PER / C RMK / TCAS SIMBRIEF
Altitude:
(Current/Filed)
27,000ft
Speed:
(Current/Filed)
440kts
Departed: 09-Jan-18 06:13 PM
Arrived: 09-Jan-18 07:05 PM
Distance/Time
Traveled:
194nm/0:51
Distance/Time
To Go:
Arrived

Flight Plot

Page will automatically refresh every two minutes.

Flight plan parsing failed; only flown route is shown


Map Options




Map Legend


Flown Route
Filed Route
Departure Airport
Arrival Airport
Navaid (VOR, NDB)
Fix

Horizontal Profiles

Position Reports

Time Latitude Longitude Heading Altitude Ground
Speed
09-Jan-18 17:21 34.196800 -118.352200 0 728ft 0kts
09-Jan-18 17:22 34.196767 -118.352175 180 728ft 0kts
09-Jan-18 17:23 34.196767 -118.352175 180 728ft 0kts
09-Jan-18 17:24 34.196767 -118.352175 180 728ft 0kts
09-Jan-18 17:25 34.196767 -118.352175 180 728ft 0kts
09-Jan-18 17:26 34.196767 -118.352175 180 728ft 0kts
09-Jan-18 17:27 34.196767 -118.352175 180 728ft 0kts
09-Jan-18 17:28 34.196766 -118.352175 180 728ft 0kts
09-Jan-18 17:29 34.196766 -118.352175 180 728ft 0kts
09-Jan-18 17:30 34.196766 -118.352175 180 728ft 0kts
09-Jan-18 17:31 34.196766 -118.352175 180 728ft 0kts
09-Jan-18 17:32 34.196766 -118.352175 180 728ft 0kts
09-Jan-18 17:33 34.196766 -118.352175 180 728ft 0kts
09-Jan-18 17:34 34.196766 -118.352175 180 728ft 0kts
09-Jan-18 17:35 34.196766 -118.352175 180 728ft 0kts
09-Jan-18 17:36 34.196766 -118.352175 180 728ft 0kts
09-Jan-18 17:37 34.196766 -118.352175 180 728ft 0kts
09-Jan-18 17:38 34.196766 -118.352175 180 728ft 0kts
09-Jan-18 17:39 34.196766 -118.352175 180 728ft 0kts
09-Jan-18 17:40 34.196766 -118.352175 180 728ft 0kts
09-Jan-18 17:41 34.196766 -118.352175 180 728ft 0kts
09-Jan-18 17:42 34.196766 -118.352175 180 728ft 0kts
09-Jan-18 17:43 34.196766 -118.352175 180 728ft 0kts
09-Jan-18 17:44 34.196766 -118.352175 180 728ft 0kts
09-Jan-18 17:45 34.196766 -118.352175 180 728ft 0kts
09-Jan-18 17:46 34.196766 -118.352175 180 728ft 0kts
09-Jan-18 17:47 34.196766 -118.352175 180 728ft 0kts
09-Jan-18 17:48 34.196766 -118.352175 180 728ft 0kts
09-Jan-18 17:49 34.196766 -118.352175 180 728ft 0kts
09-Jan-18 17:50 34.196766 -118.352175 180 728ft 0kts
09-Jan-18 17:51 34.196766 -118.352175 180 728ft 0kts
09-Jan-18 17:52 34.196766 -118.352175 180 728ft 0kts
09-Jan-18 17:53 34.196766 -118.352175 180 728ft 0kts
09-Jan-18 17:54 34.196766 -118.352175 180 728ft 0kts
09-Jan-18 17:55 34.196766 -118.352175 180 728ft 0kts
09-Jan-18 17:56 34.196766 -118.352175 180 728ft 0kts
09-Jan-18 17:57 34.196766 -118.352175 180 728ft 0kts
09-Jan-18 17:58 34.196766 -118.352175 180 728ft 0kts
09-Jan-18 17:59 34.196766 -118.352175 180 728ft 0kts
09-Jan-18 18:00 34.196766 -118.352175 180 728ft 0kts
09-Jan-18 18:01 34.196766 -118.352175 180 728ft 0kts
09-Jan-18 18:02 34.196766 -118.352175 180 728ft 0kts
09-Jan-18 18:03 34.196772 -118.352176 179 728ft 0kts
09-Jan-18 18:04 34.197144 -118.351797 269 728ft 1kts
09-Jan-18 18:05 34.197144 -118.351747 269 728ft 0kts
09-Jan-18 18:06 34.197144 -118.351750 269 728ft 0kts
09-Jan-18 18:07 34.197144 -118.351752 269 728ft 0kts
09-Jan-18 18:08 34.197144 -118.351755 269 728ft 0kts
09-Jan-18 18:09 34.197144 -118.351757 269 728ft 0kts
09-Jan-18 18:10 34.197144 -118.351759 269 728ft 0kts
09-Jan-18 18:11 34.197141 -118.352836 270 728ft 7kts
09-Jan-18 18:12 34.197902 -118.355179 351 728ft 11kts
09-Jan-18 18:13 34.201738 -118.356223 346 728ft 19kts
09-Jan-18 18:14 34.207754 -118.357889 345 728ft 22kts
09-Jan-18 18:15 34.211346 -118.358905 341 728ft 15kts
09-Jan-18 18:16 34.211904 -118.359458 306 728ft 0kts
09-Jan-18 18:17 34.211906 -118.359462 306 728ft 0kts
09-Jan-18 18:18 34.212279 -118.360101 284 728ft 6kts
09-Jan-18 18:19 34.206782 -118.358992 166 728ft 105kts
09-Jan-18 18:20 34.166614 -118.361635 228 3526ft 159kts
09-Jan-18 18:21 34.126110 -118.409499 222 4042ft 216kts
09-Jan-18 18:22 34.087666 -118.464690 263 4050ft 228kts
09-Jan-18 18:23 34.140335 -118.517364 348 5985ft 285kts
09-Jan-18 18:24 34.219063 -118.528797 350 9265ft 286kts
09-Jan-18 18:25 34.293235 -118.500824 35 11969ft 299kts
09-Jan-18 18:26 34.361027 -118.434287 37 13673ft 332kts
09-Jan-18 18:27 34.435418 -118.360238 37 15540ft 357kts
09-Jan-18 18:28 34.513641 -118.282223 37 17614ft 371kts
09-Jan-18 18:29 34.594440 -118.201296 37 19682ft 382kts
09-Jan-18 18:30 34.668178 -118.107249 61 21530ft 396kts
09-Jan-18 18:31 34.690113 -117.974772 82 23248ft 408kts
09-Jan-18 18:32 34.700239 -117.835398 87 24924ft 419kts
09-Jan-18 18:33 34.707637 -117.692401 87 26523ft 430kts
09-Jan-18 18:34 34.712593 -117.544906 87 26821ft 431kts
09-Jan-18 18:35 34.740014 -117.405954 67 26829ft 429kts
09-Jan-18 18:36 34.778287 -117.268293 74 26824ft 429kts
09-Jan-18 18:37 34.814953 -117.127982 72 26816ft 441kts
09-Jan-18 18:38 34.852823 -116.983843 74 26804ft 454kts
09-Jan-18 18:39 34.890582 -116.839692 74 26601ft 425kts
09-Jan-18 18:40 34.927524 -116.708018 64 25337ft 407kts
09-Jan-18 18:41 34.996963 -116.593501 56 24025ft 431kts
09-Jan-18 18:42 35.061797 -116.474951 58 23801ft 414kts
09-Jan-18 18:43 35.133049 -116.361959 49 23334ft 429kts
09-Jan-18 18:44 35.217391 -116.260848 48 21531ft 412kts
09-Jan-18 18:45 35.293021 -116.164374 48 19050ft 375kts
09-Jan-18 18:46 35.361740 -116.078045 48 16836ft 336kts
09-Jan-18 18:47 35.424431 -115.998752 48 15289ft 320kts
09-Jan-18 18:48 35.486529 -115.920335 48 14526ft 317kts
09-Jan-18 18:49 35.548166 -115.842165 48 13690ft 319kts
09-Jan-18 18:50 35.609565 -115.763937 48 13185ft 313kts
09-Jan-18 18:51 35.668762 -115.688328 48 13109ft 304kts
09-Jan-18 18:52 35.728722 -115.611846 48 13021ft 323kts
09-Jan-18 18:53 35.807462 -115.571207 356 13020ft 326kts
09-Jan-18 18:54 35.897307 -115.567968 3 13012ft 321kts
09-Jan-18 18:55 35.979914 -115.542216 51 12903ft 299kts
09-Jan-18 18:56 36.006466 -115.450714 74 11693ft 281kts
09-Jan-18 18:57 36.031028 -115.361231 93 11190ft 252kts
09-Jan-18 18:58 36.023499 -115.273531 98 9747ft 265kts
09-Jan-18 18:59 36.017368 -115.184561 95 9016ft 245kts
09-Jan-18 19:00 36.012557 -115.104643 95 8461ft 249kts
09-Jan-18 19:01 36.006893 -115.010539 95 7175ft 268kts
09-Jan-18 19:02 36.001829 -114.927573 95 7039ft 221kts
09-Jan-18 19:03 35.997939 -114.853619 95 6557ft 227kts
09-Jan-18 19:04 36.022493 -114.787060 12 5280ft 241kts
09-Jan-18 19:05 36.063367 -114.829575 292 5047ft 193kts
09-Jan-18 19:06 36.073034 -114.891238 283 5037ft 179kts
09-Jan-18 19:07 36.074178 -114.950951 262 5031ft 175kts
09-Jan-18 19:08 36.071468 -115.006695 267 4931ft 156kts
09-Jan-18 19:09 36.072691 -115.055920 275 3805ft 140kts
09-Jan-18 19:10 36.073654 -115.102950 270 2478ft 129kts
09-Jan-18 19:11 36.073536 -115.143513 274 2122ft 34kts
09-Jan-18 19:12 36.074322 -115.149650 298 2122ft 0kts
09-Jan-18 19:13 36.075153 -115.151141 332 2122ft 5kts
09-Jan-18 19:14 36.077621 -115.152669 333 2122ft 5kts
09-Jan-18 19:15 36.078749 -115.153020 83 2122ft 8kts
09-Jan-18 19:16 36.078441 -115.146459 96 2122ft 17kts
09-Jan-18 19:17 36.078269 -115.141569 90 2122ft 9kts
09-Jan-18 19:18 36.078460 -115.139686 15 2122ft 8kts
09-Jan-18 19:19 36.080151 -115.137872 45 2122ft 9kts
09-Jan-18 19:20 36.081157 -115.138080 317 2122ft 0kts
09-Jan-18 19:21 36.081157 -115.138080 317 2122ft 0kts
09-Jan-18 19:22 36.081157 -115.138080 317 2122ft 0kts
09-Jan-18 19:23 36.081157 -115.138080 317 2122ft 0kts
09-Jan-18 19:24 36.081157 -115.138080 317 2122ft 0kts
09-Jan-18 19:25 36.081157 -115.138080 317 2122ft 0kts

Navigation Log

Ident Type
Flight plan parsing failed, navigation log unavailable